createdAt,value
2017-06-27T00:01:42.651Z,76.70
2017-06-27T00:04:13.134Z,76.80
2017-06-27T00:06:43.647Z,76.40
2017-06-27T00:09:15.255Z,76.80
2017-06-27T00:11:46.259Z,76.80
2017-06-27T00:14:16.838Z,77.00
2017-06-27T00:16:47.675Z,76.50
2017-06-27T00:19:18.094Z,77.10
2017-06-27T00:21:48.633Z,77.40
2017-06-27T00:24:19.378Z,77.40
2017-06-27T00:26:49.723Z,77.70
2017-06-27T00:29:20.471Z,77.20
2017-06-27T00:31:50.864Z,77.50
2017-06-27T00:34:21.647Z,77.70
2017-06-27T00:36:52.233Z,77.50
2017-06-27T00:39:23.431Z,77.30
2017-06-27T00:41:53.891Z,77.30
2017-06-27T00:44:24.377Z,78.10
2017-06-27T00:46:55.005Z,78.10
2017-06-27T00:49:25.348Z,78.80
2017-06-27T00:51:55.696Z,79.30
2017-06-27T00:54:25.953Z,79.20
2017-06-27T00:56:56.344Z,78.80
2017-06-27T00:59:26.674Z,78.50
2017-06-27T01:01:56.979Z,78.70
2017-06-27T01:04:27.283Z,79.30
2017-06-27T01:06:57.663Z,79.20
2017-06-27T01:09:31.606Z,79.00
2017-06-27T01:12:02.310Z,78.90
2017-06-27T01:14:32.699Z,79.00
2017-06-27T01:17:02.814Z,76.50
2017-06-27T01:19:33.320Z,76.20
2017-06-27T01:22:04.005Z,76.70
2017-06-27T01:24:34.796Z,76.40
2017-06-27T01:27:05.280Z,76.30
2017-06-27T01:29:36.491Z,76.00
2017-06-27T01:32:06.815Z,76.70
2017-06-27T01:34:37.299Z,76.60
2017-06-27T01:37:07.965Z,75.90
2017-06-27T01:39:38.387Z,76.00
2017-06-27T01:42:08.943Z,75.80
2017-06-27T01:44:39.343Z,76.00
2017-06-27T01:47:09.871Z,76.30
2017-06-27T01:49:40.419Z,77.20
2017-06-27T01:52:11.884Z,76.30
2017-06-27T01:54:42.302Z,76.10
2017-06-27T01:57:12.727Z,77.70
2017-06-27T01:59:43.178Z,76.90
2017-06-27T02:02:13.676Z,76.70
2017-06-27T02:04:43.982Z,76.40
2017-06-27T02:07:14.669Z,76.90
2017-06-27T02:09:44.948Z,76.70
2017-06-27T02:12:15.425Z,77.10
2017-06-27T02:14:46.199Z,77.50
2017-06-27T02:17:16.675Z,78.00
2017-06-27T02:19:46.958Z,78.80
2017-06-27T02:22:17.063Z,79.40
2017-06-27T02:24:47.744Z,79.70
2017-06-27T02:27:17.843Z,79.70
2017-06-27T02:29:48.141Z,80.00
2017-06-27T02:32:18.480Z,80.40
2017-06-27T02:34:48.932Z,79.90
2017-06-27T02:37:19.333Z,80.00
2017-06-27T02:39:49.753Z,80.00
2017-06-27T02:42:20.184Z,79.90
2017-06-27T02:44:50.628Z,80.90
2017-06-27T02:47:21.307Z,79.70
2017-06-27T02:49:52.298Z,79.40
2017-06-27T02:52:22.762Z,79.30
2017-06-27T02:54:53.242Z,79.90
2017-06-27T02:57:23.783Z,80.10
2017-06-27T02:59:54.224Z,79.00
2017-06-27T03:02:24.638Z,78.10
2017-06-27T03:04:55.154Z,77.30
2017-06-27T03:07:25.493Z,78.20
2017-06-27T03:09:55.999Z,78.00
2017-06-27T03:12:26.742Z,78.40
2017-06-27T03:14:57.630Z,78.30
2017-06-27T03:17:27.924Z,78.30
2017-06-27T03:19:58.358Z,77.80
2017-06-27T03:22:29.484Z,78.40
2017-06-27T03:24:59.581Z,77.70
2017-06-27T03:27:29.672Z,77.60
2017-06-27T03:30:00.118Z,77.40
2017-06-27T03:32:30.186Z,77.60
2017-06-27T03:35:00.309Z,77.60
2017-06-27T03:37:30.398Z,77.90
2017-06-27T03:40:00.848Z,78.20
2017-06-27T03:42:31.183Z,79.20
2017-06-27T03:45:01.834Z,79.70
2017-06-27T03:47:32.143Z,80.90
2017-06-27T03:50:02.536Z,81.30
2017-06-27T03:52:33.238Z,81.00
2017-06-27T03:55:03.698Z,81.20
2017-06-27T03:57:34.031Z,81.60
2017-06-27T04:00:05.058Z,81.80
2017-06-27T04:02:35.784Z,82.40
2017-06-27T04:05:05.971Z,83.20
2017-06-27T04:07:37.293Z,84.40
2017-06-27T04:10:08.028Z,83.60
2017-06-27T04:13:41.226Z,84.10
2017-06-27T04:16:11.618Z,83.50
2017-06-27T04:18:41.724Z,84.40
2017-06-27T04:21:11.863Z,85.80
2017-06-27T04:23:41.940Z,84.50
2017-06-27T04:26:12.691Z,83.80
2017-06-27T04:28:42.792Z,84.20
2017-06-27T04:32:18.622Z,84.90
2017-06-27T04:34:49.047Z,83.50
2017-06-27T04:37:19.143Z,83.30
2017-06-27T04:39:49.609Z,83.90
2017-06-27T04:42:19.987Z,83.90
2017-06-27T04:44:50.788Z,84.00
2017-06-27T04:47:21.082Z,84.50
2017-06-27T04:49:51.200Z,84.60
2017-06-27T04:52:21.604Z,84.10
2017-06-27T04:54:51.702Z,84.50
2017-06-27T04:57:21.871Z,84.30
2017-06-27T04:59:52.064Z,85.20
2017-06-27T05:02:22.179Z,86.30
2017-06-27T05:04:52.695Z,84.10
2017-06-27T05:07:22.801Z,84.70
2017-06-27T05:09:52.884Z,84.00
2017-06-27T05:12:23.355Z,82.60
2017-06-27T05:14:53.591Z,82.80
2017-06-27T05:17:23.737Z,84.90
2017-06-27T05:19:53.917Z,84.30
2017-06-27T05:22:23.967Z,85.60
2017-06-27T05:24:54.511Z,86.50
2017-06-27T05:27:24.643Z,87.30
2017-06-27T05:29:55.022Z,86.30
2017-06-27T05:32:25.619Z,87.30
2017-06-27T05:34:55.802Z,88.20
2017-06-27T05:37:27.292Z,88.30
2017-06-27T05:39:57.919Z,87.50
2017-06-27T05:42:28.079Z,86.50
2017-06-27T05:44:58.736Z,86.50
2017-06-27T05:47:29.269Z,86.80
2017-06-27T05:49:59.622Z,86.60
2017-06-27T05:52:29.746Z,86.90
2017-06-27T05:55:00.384Z,87.80
2017-06-27T05:57:30.922Z,88.40
2017-06-27T06:00:01.115Z,87.70
2017-06-27T06:02:31.363Z,87.90
2017-06-27T06:05:02.163Z,86.60
2017-06-27T06:07:34.590Z,86.90
2017-06-27T06:10:04.952Z,87.00
2017-06-27T06:14:36.232Z,84.90
2017-06-27T06:17:06.554Z,84.90
2017-06-27T06:19:36.700Z,85.60
2017-06-27T06:22:07.345Z,85.20
2017-06-27T06:24:37.516Z,85.60
2017-06-27T06:27:07.950Z,85.50
2017-06-27T06:29:38.257Z,84.70
2017-06-27T06:32:08.454Z,84.10
2017-06-27T06:34:38.911Z,81.80
2017-06-27T06:37:09.047Z,82.30
2017-06-27T06:39:39.295Z,83.30
2017-06-27T06:42:10.259Z,83.00
2017-06-27T06:44:40.403Z,82.40
2017-06-27T06:47:11.632Z,82.50
2017-06-27T06:49:42.079Z,81.10
2017-06-27T06:52:12.703Z,80.50
2017-06-27T06:54:43.495Z,78.00
2017-06-27T06:59:53.714Z,80.00
2017-06-27T07:02:23.834Z,80.10
2017-06-27T07:04:54.597Z,80.30
2017-06-27T07:07:24.687Z,81.00
2017-06-27T07:09:54.832Z,79.40
2017-06-27T07:12:25.223Z,79.30
2017-06-27T07:14:55.859Z,77.50
2017-06-27T07:17:27.214Z,77.50
2017-06-27T07:19:57.371Z,75.70
2017-06-27T07:22:28.790Z,76.40
2017-06-27T07:24:59.296Z,77.80
2017-06-27T07:27:29.419Z,79.00
2017-06-27T07:30:00.257Z,78.60
2017-06-27T07:32:30.716Z,77.50
2017-06-27T07:35:01.671Z,79.70
2017-06-27T07:37:31.983Z,76.00
2017-06-27T07:40:02.196Z,74.80
2017-06-27T07:42:32.875Z,74.70
2017-06-27T07:45:03.219Z,74.80
2017-06-27T07:47:33.582Z,75.70
2017-06-27T07:50:03.703Z,73.00
2017-06-27T07:52:37.867Z,73.00
2017-06-27T07:55:10.839Z,74.80
2017-06-27T07:57:41.088Z,72.00
2017-06-27T08:00:11.624Z,71.30
2017-06-27T08:02:41.727Z,73.20
2017-06-27T08:05:12.012Z,74.50
2017-06-27T08:07:42.495Z,73.80
2017-06-27T08:10:12.591Z,73.10
2017-06-27T08:12:43.256Z,72.70
2017-06-27T08:15:13.861Z,74.70
2017-06-27T08:17:44.270Z,75.00
2017-06-27T08:20:14.441Z,74.00
2017-06-27T08:22:44.573Z,75.00
2017-06-27T08:25:14.697Z,74.60
2017-06-27T08:27:45.241Z,74.40
2017-06-27T08:30:15.419Z,70.80
2017-06-27T08:32:45.583Z,71.70
2017-06-27T08:35:15.692Z,66.60
2017-06-27T08:37:45.873Z,64.90
2017-06-27T08:40:16.587Z,63.50
2017-06-27T08:42:46.699Z,59.70
2017-06-27T08:45:16.884Z,56.70
2017-06-27T08:47:47.372Z,55.40
2017-06-27T08:50:17.631Z,54.90
2017-06-27T08:52:47.772Z,54.90
2017-06-27T08:55:17.886Z,54.80
2017-06-27T08:57:48.035Z,57.20
2017-06-27T09:00:18.611Z,55.50
2017-06-27T09:02:48.739Z,54.30
2017-06-27T09:05:18.867Z,54.10
2017-06-27T09:07:49.350Z,54.50
2017-06-27T09:10:19.455Z,52.20
2017-06-27T09:12:49.659Z,51.00
2017-06-27T09:15:19.769Z,50.80
2017-06-27T09:17:50.214Z,54.10
2017-06-27T09:20:20.778Z,55.10
2017-06-27T09:22:51.048Z,55.30
2017-06-27T09:25:21.170Z,54.50
2017-06-27T09:27:51.798Z,53.30
2017-06-27T09:30:21.883Z,54.10
2017-06-27T09:32:52.072Z,55.60
2017-06-27T09:35:22.200Z,56.40
2017-06-27T09:37:52.334Z,55.60
2017-06-27T09:40:22.866Z,56.90
2017-06-27T09:42:52.983Z,56.50
2017-06-27T09:45:23.099Z,59.20
2017-06-27T09:47:53.498Z,59.80
2017-06-27T09:50:23.579Z,60.30
2017-06-27T09:52:54.127Z,63.20
2017-06-27T09:55:24.295Z,62.90
2017-06-27T09:57:54.405Z,63.10
2017-06-27T10:00:25.047Z,62.80
2017-06-27T10:02:55.138Z,62.60
2017-06-27T10:05:26.748Z,59.80
2017-06-27T10:07:57.105Z,62.30
2017-06-27T10:10:28.745Z,61.90
2017-06-27T10:12:59.485Z,61.70
2017-06-27T10:15:29.725Z,62.20
2017-06-27T10:18:00.050Z,62.20
2017-06-27T10:20:30.906Z,62.60
2017-06-27T10:23:01.056Z,61.70
2017-06-27T10:25:31.669Z,60.40
2017-06-27T10:28:01.790Z,60.10
2017-06-27T10:30:31.913Z,61.10
2017-06-27T10:33:02.454Z,61.30
2017-06-27T10:35:32.606Z,61.30
2017-06-27T10:38:03.035Z,62.10
2017-06-27T10:40:33.443Z,61.60
2017-06-27T10:43:04.546Z,62.10
2017-06-27T10:45:34.976Z,62.00
2017-06-27T10:48:05.095Z,59.60
2017-06-27T10:50:35.324Z,60.70
2017-06-27T10:53:05.927Z,59.20
2017-06-27T10:55:36.615Z,57.60
2017-06-27T10:58:06.838Z,56.50
2017-06-27T11:00:37.055Z,57.60
2017-06-27T11:03:07.249Z,59.70
2017-06-27T11:05:38.318Z,61.00
2017-06-27T11:08:08.489Z,59.90
2017-06-27T11:10:39.174Z,60.10
2017-06-27T11:13:09.876Z,60.40
2017-06-27T11:16:25.878Z,59.70
2017-06-27T11:18:56.386Z,59.60
2017-06-27T11:21:26.711Z,60.20
2017-06-27T11:23:58.490Z,60.20
2017-06-27T11:26:28.624Z,59.80
2017-06-27T11:28:58.895Z,57.50
2017-06-27T11:31:29.386Z,57.50
2017-06-27T11:34:01.185Z,57.90
2017-06-27T11:36:31.516Z,59.10
2017-06-27T11:39:01.657Z,59.90
2017-06-27T11:41:31.896Z,60.30
2017-06-27T11:44:02.391Z,59.70
2017-06-27T11:46:32.874Z,58.50
2017-06-27T11:49:03.063Z,57.60
2017-06-27T11:51:33.402Z,57.80
2017-06-27T11:54:03.614Z,59.10
2017-06-27T11:56:34.505Z,59.60
2017-06-27T11:59:05.016Z,59.50
2017-06-27T12:02:39.435Z,60.10
2017-06-27T12:05:18.718Z,60.20
2017-06-27T12:07:49.908Z,58.80
2017-06-27T12:10:20.117Z,59.40
2017-06-27T12:12:51.070Z,59.30
2017-06-27T12:15:21.219Z,57.40
2017-06-27T12:17:52.059Z,58.30
2017-06-27T12:20:22.777Z,57.40
2017-06-27T12:22:52.930Z,57.40
2017-06-27T12:25:23.456Z,57.60
2017-06-27T12:27:54.437Z,58.10
2017-06-27T12:30:24.519Z,56.40
2017-06-27T12:32:54.726Z,57.90
2017-06-27T12:35:24.808Z,58.30
2017-06-27T12:37:56.771Z,59.90
2017-06-27T12:40:27.193Z,59.90
2017-06-27T12:42:57.398Z,60.90
2017-06-27T12:45:28.173Z,60.80
2017-06-27T12:47:58.514Z,61.50
2017-06-27T12:50:29.707Z,61.30
2017-06-27T12:52:59.956Z,62.30
2017-06-27T12:55:31.461Z,60.90
2017-06-27T12:58:01.622Z,61.00
2017-06-27T13:00:31.802Z,59.10
2017-06-27T13:03:01.960Z,60.30
2017-06-27T13:05:32.135Z,60.90
2017-06-27T13:08:02.516Z,62.10
2017-06-27T13:10:32.714Z,61.80
2017-06-27T13:13:02.842Z,63.10
2017-06-27T13:15:33.074Z,63.60
2017-06-27T13:18:03.247Z,63.40
2017-06-27T13:20:34.933Z,64.40
2017-06-27T13:23:05.056Z,64.70
2017-06-27T13:25:35.244Z,65.30
2017-06-27T13:28:05.433Z,64.70
2017-06-27T13:30:35.987Z,65.50
2017-06-27T13:33:06.544Z,65.60
2017-06-27T13:35:36.723Z,66.60
2017-06-27T13:38:06.926Z,68.10
2017-06-27T13:40:37.039Z,68.80
2017-06-27T13:43:07.524Z,69.30
2017-06-27T13:45:37.657Z,70.20
2017-06-27T13:48:08.052Z,70.70
2017-06-27T13:50:38.937Z,71.90
2017-06-27T13:53:09.525Z,75.30
2017-06-27T13:55:39.918Z,78.20
2017-06-27T13:58:10.136Z,81.40
2017-06-27T14:00:40.301Z,80.50
2017-06-27T14:03:10.985Z,81.40
2017-06-27T14:05:41.433Z,84.10
2017-06-27T14:08:11.750Z,85.10
2017-06-27T14:10:41.987Z,86.30
2017-06-27T14:13:12.286Z,86.80
2017-06-27T14:15:42.788Z,87.80
2017-06-27T14:18:13.041Z,87.10
2017-06-27T14:20:43.796Z,87.70
2017-06-27T14:23:13.993Z,89.50
2017-06-27T14:25:44.218Z,89.80
2017-06-27T14:28:14.575Z,87.50
2017-06-27T14:30:44.905Z,86.90
2017-06-27T14:33:15.451Z,85.90
2017-06-27T14:35:45.593Z,86.00
2017-06-27T14:38:15.870Z,85.70
2017-06-27T14:40:46.050Z,86.00
2017-06-27T14:43:16.433Z,85.20
2017-06-27T14:45:47.430Z,84.40
2017-06-27T14:48:18.082Z,84.80
2017-06-27T14:50:48.398Z,85.40
2017-06-27T14:53:18.570Z,84.90
2017-06-27T14:55:48.970Z,84.90
2017-06-27T14:58:20.503Z,86.10
2017-06-27T15:00:51.948Z,87.30
2017-06-27T15:03:22.641Z,88.30
2017-06-27T15:05:52.980Z,85.60
2017-06-27T15:08:24.458Z,85.80
2017-06-27T15:10:56.157Z,85.50
2017-06-27T15:13:26.486Z,85.50
2017-06-27T15:15:57.508Z,86.70
2017-06-27T15:18:27.720Z,88.50
2017-06-27T15:20:59.264Z,89.00
2017-06-27T15:23:29.482Z,89.40
2017-06-27T15:25:59.926Z,87.40
2017-06-27T15:28:30.127Z,88.50
2017-06-27T15:31:00.508Z,87.80
2017-06-27T15:33:31.386Z,88.40
2017-06-27T15:36:01.817Z,88.80
2017-06-27T15:38:32.356Z,88.30
2017-06-27T15:41:04.213Z,89.80
2017-06-27T15:43:34.688Z,89.10
2017-06-27T15:46:05.401Z,89.90
2017-06-27T15:48:36.032Z,90.40
2017-06-27T15:51:06.223Z,90.30
2017-06-27T15:53:37.301Z,90.00
2017-06-27T15:56:07.659Z,90.60
2017-06-27T15:58:38.012Z,90.30
2017-06-27T16:01:08.149Z,90.30
2017-06-27T16:03:38.806Z,89.20
2017-06-27T16:06:08.921Z,90.20
2017-06-27T16:08:39.104Z,89.30
2017-06-27T16:11:09.437Z,89.80
2017-06-27T16:13:39.641Z,89.70
2017-06-27T16:16:10.131Z,90.30
2017-06-27T16:18:40.388Z,90.50
2017-06-27T16:21:11.132Z,90.60
2017-06-27T16:23:41.316Z,90.30
2017-06-27T16:26:11.458Z,89.20
2017-06-27T16:28:41.793Z,90.10
2017-06-27T16:31:12.132Z,90.10
2017-06-27T16:33:44.039Z,90.20
2017-06-27T16:36:14.902Z,90.70
2017-06-27T16:38:45.058Z,90.70
2017-06-27T16:41:15.233Z,90.00
2017-06-27T16:43:46.322Z,89.30
2017-06-27T16:46:17.392Z,89.20
2017-06-27T16:48:48.449Z,89.20
2017-06-27T16:51:18.752Z,90.30
2017-06-27T16:53:49.204Z,89.60
2017-06-27T16:56:19.608Z,90.10
2017-06-27T16:58:50.415Z,90.00
2017-06-27T17:01:20.955Z,90.70
2017-06-27T17:03:51.408Z,89.70
2017-06-27T17:06:22.735Z,88.80
2017-06-27T17:08:54.204Z,87.80
2017-06-27T17:11:24.437Z,88.20
2017-06-27T17:13:55.164Z,89.60
2017-06-27T17:16:25.520Z,88.70
2017-06-27T17:18:55.820Z,90.20
2017-06-27T17:21:26.556Z,87.20
2017-06-27T17:23:56.742Z,88.70
2017-06-27T17:26:27.012Z,88.10
2017-06-27T17:28:57.846Z,88.50
2017-06-27T17:31:28.158Z,88.10
2017-06-27T17:33:58.364Z,90.00
2017-06-27T17:36:29.271Z,89.00
2017-06-27T17:38:59.635Z,88.80
2017-06-27T17:41:31.907Z,89.70
2017-06-27T17:44:02.968Z,90.20
2017-06-27T17:46:33.745Z,90.00
2017-06-27T17:49:06.349Z,88.50
2017-06-27T17:53:06.401Z,90.00
2017-06-27T17:55:37.092Z,88.50
2017-06-27T17:58:07.399Z,86.00
2017-06-27T18:00:37.983Z,87.90
2017-06-27T18:04:37.704Z,86.30
2017-06-27T18:07:07.996Z,86.30
2017-06-27T18:09:40.096Z,86.40
2017-06-27T18:12:10.689Z,86.40
2017-06-27T18:14:40.885Z,86.80
2017-06-27T18:17:11.198Z,87.20
2017-06-27T18:19:41.702Z,88.80
2017-06-27T18:22:12.265Z,88.30
2017-06-27T18:24:44.009Z,87.40
2017-06-27T18:27:14.991Z,88.20
2017-06-27T18:29:45.233Z,88.40
2017-06-27T18:32:16.536Z,88.40
2017-06-27T18:34:46.809Z,89.50
2017-06-27T18:37:17.044Z,90.10
2017-06-27T18:39:47.261Z,90.50
2017-06-27T18:42:18.829Z,90.10
2017-06-27T18:44:48.987Z,90.40
2017-06-27T18:47:19.153Z,90.30
2017-06-27T18:49:49.533Z,90.60
2017-06-27T18:52:20.014Z,90.50
2017-06-27T18:54:50.249Z,90.20
2017-06-27T18:57:20.661Z,90.20
2017-06-27T18:59:50.900Z,90.90
2017-06-27T19:02:21.498Z,90.90
2017-06-27T19:04:51.810Z,90.90
2017-06-27T19:07:21.980Z,90.30
2017-06-27T19:09:52.136Z,89.80
2017-06-27T19:12:22.856Z,90.80
2017-06-27T19:14:53.429Z,90.70
2017-06-27T19:17:23.736Z,90.70
2017-06-27T19:19:53.968Z,90.50
2017-06-27T19:22:24.699Z,90.00
2017-06-27T19:24:55.067Z,90.40
2017-06-27T19:27:25.371Z,90.80
2017-06-27T19:29:55.948Z,90.80
2017-06-27T19:32:26.546Z,90.70
2017-06-27T19:34:56.886Z,91.00
2017-06-27T19:37:27.071Z,91.10
2017-06-27T19:39:57.392Z,91.30
2017-06-27T19:42:31.004Z,91.30
2017-06-27T19:45:02.665Z,91.50
2017-06-27T19:47:33.757Z,91.40
2017-06-27T19:50:04.045Z,91.80
2017-06-27T19:52:34.789Z,91.70
2017-06-27T19:55:05.102Z,91.40
2017-06-27T19:57:35.545Z,91.60
2017-06-27T20:00:06.375Z,91.50
2017-06-27T20:02:36.837Z,91.80
2017-06-27T20:05:07.301Z,91.70
2017-06-27T20:07:38.703Z,91.60
2017-06-27T20:10:08.936Z,92.00
2017-06-27T20:12:39.100Z,91.80
2017-06-27T20:15:09.260Z,91.80
2017-06-27T20:17:40.295Z,91.80
2017-06-27T20:20:10.515Z,92.00
2017-06-27T20:22:40.744Z,92.10
2017-06-27T20:25:11.140Z,92.00
2017-06-27T20:27:41.691Z,92.10
2017-06-27T20:30:12.634Z,92.20
2017-06-27T20:32:42.897Z,92.30
2017-06-27T20:35:13.366Z,92.40
2017-06-27T20:37:44.728Z,91.90
2017-06-27T20:40:15.122Z,91.90
2017-06-27T20:42:45.355Z,91.70
2017-06-27T20:45:15.716Z,91.80
2017-06-27T20:47:48.587Z,91.90
2017-06-27T20:50:21.780Z,92.00
2017-06-27T20:52:52.464Z,92.30
2017-06-27T20:55:22.657Z,92.40
2017-06-27T20:57:53.263Z,92.30
2017-06-27T21:00:23.731Z,92.40
2017-06-27T21:02:54.274Z,92.50
2017-06-27T21:05:24.976Z,92.50
2017-06-27T21:07:55.083Z,92.50
2017-06-27T21:10:25.274Z,92.60
2017-06-27T21:12:55.816Z,92.60
2017-06-27T21:15:25.954Z,92.60
2017-06-27T21:17:56.255Z,92.30
2017-06-27T21:20:27.245Z,92.30
2017-06-27T21:22:57.576Z,92.20
2017-06-27T21:25:27.725Z,92.20
2017-06-27T21:27:58.420Z,92.20
2017-06-27T21:30:28.643Z,92.30
2017-06-27T21:32:59.009Z,92.20
2017-06-27T21:35:30.526Z,92.10
2017-06-27T21:38:00.892Z,92.10
2017-06-27T21:40:31.340Z,92.10
2017-06-27T21:43:02.612Z,92.00
2017-06-27T21:45:33.712Z,92.00
2017-06-27T21:48:04.257Z,91.90
2017-06-27T21:50:35.414Z,91.90
2017-06-27T21:53:07.265Z,91.90
2017-06-27T21:55:37.822Z,91.80
2017-06-27T21:58:08.377Z,91.80
2017-06-27T22:00:39.082Z,91.70
2017-06-27T22:03:09.417Z,91.60
2017-06-27T22:05:39.631Z,91.40
2017-06-27T22:08:10.081Z,91.50
2017-06-27T22:10:40.255Z,91.50
2017-06-27T22:13:10.486Z,91.40
2017-06-27T22:15:40.705Z,91.30
2017-06-27T22:18:10.861Z,91.00
2017-06-27T22:20:41.736Z,90.80
2017-06-27T22:23:13.505Z,91.10
2017-06-27T22:25:45.011Z,91.00
2017-06-27T22:28:15.189Z,91.00
2017-06-27T22:30:45.317Z,90.80
2017-06-27T22:33:15.490Z,90.60
2017-06-27T22:35:45.801Z,90.70
2017-06-27T22:38:16.244Z,90.60
2017-06-27T22:40:46.397Z,90.70
2017-06-27T22:43:16.728Z,90.50
2017-06-27T22:45:47.275Z,90.80
2017-06-27T22:48:20.308Z,91.10
2017-06-27T22:50:50.578Z,90.80
2017-06-27T22:53:21.813Z,90.70
2017-06-27T22:55:51.928Z,90.70
2017-06-27T22:58:22.314Z,90.70
2017-06-27T23:00:52.673Z,90.80
2017-06-27T23:03:23.976Z,90.80
2017-06-27T23:05:54.873Z,90.80
2017-06-27T23:08:25.440Z,90.90
2017-06-27T23:10:55.687Z,91.10
2017-06-27T23:13:25.843Z,91.00
2017-06-27T23:15:56.161Z,91.10
2017-06-27T23:18:26.672Z,91.20
2017-06-27T23:20:57.496Z,91.00
2017-06-27T23:23:28.103Z,91.40
2017-06-27T23:25:58.465Z,91.20
2017-06-27T23:28:29.379Z,91.10
2017-06-27T23:30:59.811Z,91.10
2017-06-27T23:33:30.368Z,90.80
2017-06-27T23:36:01.540Z,91.00
2017-06-27T23:38:32.012Z,90.60
2017-06-27T23:41:02.326Z,90.50
2017-06-27T23:43:32.669Z,90.50
2017-06-27T23:46:06.388Z,90.40
2017-06-27T23:48:37.586Z,90.40
2017-06-27T23:51:08.196Z,90.40
2017-06-27T23:53:38.690Z,90.40
2017-06-27T23:56:09.100Z,90.60
2017-06-27T23:58:39.653Z,90.50
